createdAt,value
2023-01-10T00:00:23.623Z,72.96
2023-01-10T00:02:51.046Z,72.21
2023-01-10T00:05:18.395Z,72.86
2023-01-10T00:07:45.746Z,72.24
2023-01-10T00:10:12.372Z,71.84
2023-01-10T00:12:57.244Z,71.90
2023-01-10T00:15:23.709Z,72.49
2023-01-10T00:17:50.107Z,72.78
2023-01-10T00:20:16.744Z,72.23
2023-01-10T00:22:43.516Z,72.54
2023-01-10T00:25:09.924Z,71.41
2023-01-10T00:27:36.514Z,72.24
2023-01-10T00:30:13.952Z,71.32
2023-01-10T00:32:42.037Z,71.43
2023-01-10T00:35:09.422Z,71.87
2023-01-10T00:37:36.440Z,71.63
2023-01-10T00:40:03.756Z,71.22
2023-01-10T00:42:49.747Z,71.22
2023-01-10T00:45:16.609Z,71.68
2023-01-10T00:47:43.513Z,71.70
2023-01-10T00:50:11.625Z,71.07
2023-01-10T00:52:38.124Z,71.40
2023-01-10T00:55:05.209Z,71.35
2023-01-10T00:57:31.633Z,71.99
2023-01-10T00:59:58.187Z,71.29
2023-01-10T01:02:24.852Z,71.37
2023-01-10T01:04:51.404Z,71.45
2023-01-10T01:07:17.803Z,71.69
2023-01-10T01:10:02.869Z,71.54
2023-01-10T01:12:29.429Z,71.87
2023-01-10T01:14:55.912Z,71.04
2023-01-10T01:17:22.335Z,71.81
2023-01-10T01:19:48.770Z,71.44
2023-01-10T01:22:15.213Z,72.05
2023-01-10T01:24:42.183Z,70.96
2023-01-10T01:27:08.563Z,71.36
2023-01-10T01:29:43.136Z,71.20
2023-01-10T01:32:10.470Z,71.75
2023-01-10T01:34:37.231Z,70.79
2023-01-10T01:37:03.716Z,71.09
2023-01-10T01:39:30.133Z,71.69
2023-01-10T01:42:00.250Z,71.53
2023-01-10T01:44:32.517Z,71.38
2023-01-10T01:47:07.371Z,71.78
2023-01-10T01:49:39.647Z,70.62
2023-01-10T01:52:10.204Z,70.91
2023-01-10T01:54:37.075Z,71.55
2023-01-10T01:57:07.339Z,71.98
2023-01-10T01:59:38.133Z,71.72
2023-01-10T02:02:30.659Z,72.06
2023-01-10T02:05:09.280Z,71.51
2023-01-10T02:07:38.102Z,71.24
2023-01-10T02:10:17.925Z,71.25
2023-01-10T02:12:45.897Z,71.34
2023-01-10T02:15:13.087Z,71.78
2023-01-10T02:17:40.011Z,71.47
2023-01-10T02:20:09.531Z,72.15
2023-01-10T02:23:06.321Z,72.21
2023-01-10T02:26:10.440Z,72.49
2023-01-10T02:28:55.860Z,72.50
2023-01-10T02:31:44.157Z,72.30
2023-01-10T02:34:38.802Z,72.21
2023-01-10T02:37:14.680Z,72.16
2023-01-10T02:39:59.272Z,72.21
2023-01-10T02:42:31.665Z,72.64
2023-01-10T02:45:04.749Z,73.84
2023-01-10T02:47:38.715Z,74.98
2023-01-10T02:50:30.465Z,74.85
2023-01-10T02:53:00.239Z,75.13
2023-01-10T02:55:39.776Z,75.01
2023-01-10T02:58:26.015Z,75.40
2023-01-10T03:00:58.211Z,75.74
2023-01-10T03:03:44.570Z,75.82
2023-01-10T03:06:19.457Z,75.14
2023-01-10T03:08:56.565Z,75.50
2023-01-10T03:11:40.050Z,76.33
2023-01-10T03:14:23.074Z,75.73
2023-01-10T03:16:59.141Z,75.50
2023-01-10T03:19:29.870Z,76.63
2023-01-10T03:21:57.700Z,76.04
2023-01-10T03:24:30.590Z,75.71
2023-01-10T03:27:22.001Z,76.03
2023-01-10T03:29:53.749Z,75.71
2023-01-10T03:32:23.977Z,76.03
2023-01-10T03:34:50.567Z,76.12
2023-01-10T03:37:47.953Z,75.47
2023-01-10T03:40:30.793Z,75.23
2023-01-10T03:43:29.749Z,75.63
2023-01-10T03:46:03.942Z,76.49
2023-01-10T03:48:34.113Z,75.35
2023-01-10T03:51:03.248Z,75.86
2023-01-10T03:53:31.423Z,75.17
2023-01-10T03:55:57.886Z,74.79
2023-01-10T03:58:24.395Z,74.26
2023-01-10T04:00:51.141Z,75.55
2023-01-10T04:03:17.712Z,75.03
2023-01-10T04:05:44.125Z,75.32
2023-01-10T04:08:10.903Z,75.24
2023-01-10T04:10:38.058Z,75.14
2023-01-10T04:13:05.460Z,74.59
2023-01-10T04:15:32.309Z,74.25
2023-01-10T04:17:58.778Z,74.14
2023-01-10T04:20:27.244Z,73.51
2023-01-10T04:22:54.743Z,73.74
2023-01-10T04:25:22.551Z,74.39
2023-01-10T04:27:52.486Z,74.30
2023-01-10T04:30:19.849Z,74.60
2023-01-10T04:32:47.283Z,74.00
2023-01-10T04:35:13.856Z,74.04
2023-01-10T04:37:40.231Z,73.07
2023-01-10T04:40:07.345Z,73.87
2023-01-10T04:42:34.037Z,74.52
2023-01-10T04:45:00.954Z,74.43
2023-01-10T04:47:27.382Z,73.82
2023-01-10T04:49:53.836Z,74.27
2023-01-10T04:52:20.402Z,73.82
2023-01-10T04:54:46.769Z,74.63
2023-01-10T04:57:13.210Z,73.87
2023-01-10T04:59:39.755Z,74.26
2023-01-10T05:02:06.260Z,74.09
2023-01-10T05:04:32.790Z,73.84
2023-01-10T05:06:59.199Z,74.36
2023-01-10T05:09:25.641Z,73.79
2023-01-10T05:11:52.022Z,73.88
2023-01-10T05:14:18.448Z,73.94
2023-01-10T05:16:44.917Z,74.48
2023-01-10T05:19:12.131Z,73.79
2023-01-10T05:21:38.660Z,74.14
2023-01-10T05:24:05.484Z,73.74
2023-01-10T05:26:31.945Z,74.07
2023-01-10T05:28:58.445Z,73.95
2023-01-10T05:31:25.333Z,73.69
2023-01-10T05:33:52.232Z,73.34
2023-01-10T05:36:19.574Z,74.46
2023-01-10T05:38:46.282Z,73.52
2023-01-10T05:41:12.745Z,73.90
2023-01-10T05:43:39.251Z,74.86
2023-01-10T05:46:05.841Z,74.36
2023-01-10T05:48:32.422Z,74.12
2023-01-10T05:50:58.910Z,74.36
2023-01-10T05:53:25.323Z,74.21
2023-01-10T05:55:56.790Z,74.51
2023-01-10T05:58:23.588Z,74.59
2023-01-10T06:00:50.377Z,73.94
2023-01-10T06:03:17.194Z,74.08
2023-01-10T06:05:43.626Z,74.78
2023-01-10T06:08:10.189Z,74.13
2023-01-10T06:10:36.599Z,74.89
2023-01-10T06:13:04.967Z,74.32
2023-01-10T06:15:33.959Z,73.69
2023-01-10T06:18:00.437Z,74.44
2023-01-10T06:20:27.165Z,74.09
2023-01-10T06:22:53.698Z,75.02
2023-01-10T06:25:20.464Z,74.11
2023-01-10T06:27:47.000Z,74.36
2023-01-10T06:30:14.102Z,74.68
2023-01-10T06:32:41.092Z,74.70
2023-01-10T06:35:08.403Z,74.32
2023-01-10T06:37:34.846Z,74.37
2023-01-10T06:40:01.311Z,74.13
2023-01-10T06:42:27.760Z,74.13
2023-01-10T06:44:54.165Z,74.35
2023-01-10T06:47:20.616Z,74.43
2023-01-10T06:49:46.994Z,74.96
2023-01-10T06:52:13.441Z,74.56
2023-01-10T06:54:41.432Z,74.36
2023-01-10T06:57:08.300Z,74.94
2023-01-10T06:59:34.749Z,75.10
2023-01-10T07:02:01.391Z,74.69
2023-01-10T07:04:27.923Z,74.76
2023-01-10T07:06:54.641Z,75.14
2023-01-10T07:09:21.135Z,77.00
2023-01-10T07:11:47.505Z,77.87
2023-01-10T07:14:13.939Z,78.20
2023-01-10T07:16:40.326Z,78.14
2023-01-10T07:19:06.753Z,78.85
2023-01-10T07:21:33.129Z,78.86
2023-01-10T07:24:02.433Z,79.95
2023-01-10T07:26:29.819Z,79.72
2023-01-10T07:28:56.748Z,79.10
2023-01-10T07:31:24.529Z,79.30
2023-01-10T07:33:52.253Z,79.69
2023-01-10T07:36:19.099Z,79.62
2023-01-10T07:38:45.571Z,79.13
2023-01-10T07:41:12.350Z,79.13
2023-01-10T07:43:38.727Z,78.58
2023-01-10T07:46:09.423Z,78.71
2023-01-10T07:48:36.710Z,79.16
2023-01-10T07:51:03.973Z,79.28
2023-01-10T07:53:30.389Z,79.17
2023-01-10T07:56:01.507Z,78.80
2023-01-10T07:58:28.567Z,79.06
2023-01-10T08:00:59.459Z,79.99
2023-01-10T08:03:26.168Z,78.71
2023-01-10T08:06:04.716Z,78.29
2023-01-10T08:08:31.365Z,78.75
2023-01-10T08:10:59.621Z,78.00
2023-01-10T08:13:26.868Z,78.35
2023-01-10T08:15:53.413Z,77.89
2023-01-10T08:18:21.441Z,77.69
2023-01-10T08:20:52.312Z,77.81
2023-01-10T08:23:19.719Z,78.24
2023-01-10T08:25:46.429Z,78.17
2023-01-10T08:28:13.203Z,79.10
2023-01-10T08:30:40.197Z,78.28
2023-01-10T08:33:08.087Z,79.03
2023-01-10T08:35:43.466Z,78.12
2023-01-10T08:38:11.678Z,78.69
2023-01-10T08:40:38.556Z,78.50
2023-01-10T08:43:08.080Z,77.90
2023-01-10T08:45:35.327Z,77.08
2023-01-10T08:48:02.389Z,74.44
2023-01-10T08:50:29.425Z,74.66
2023-01-10T08:52:59.630Z,74.94
2023-01-10T08:55:26.947Z,74.16
2023-01-10T08:57:53.711Z,72.84
2023-01-10T09:00:21.145Z,72.26
2023-01-10T09:02:47.928Z,68.98
2023-01-10T09:05:26.313Z,65.96
2023-01-10T09:07:57.790Z,63.93
2023-01-10T09:10:24.400Z,62.10
2023-01-10T09:12:56.941Z,62.52
2023-01-10T09:15:25.120Z,64.17
2023-01-10T09:17:56.782Z,64.75
2023-01-10T09:20:25.009Z,66.50
2023-01-10T09:22:51.985Z,66.12
2023-01-10T09:25:18.491Z,64.23
2023-01-10T09:27:45.083Z,64.83
2023-01-10T09:30:12.524Z,67.09
2023-01-10T09:32:39.388Z,69.24
2023-01-10T09:35:06.086Z,71.53
2023-01-10T09:37:33.834Z,73.72
2023-01-10T09:40:00.449Z,75.63
2023-01-10T09:42:50.584Z,76.73
2023-01-10T09:45:22.020Z,78.58
2023-01-10T09:48:12.409Z,79.08
2023-01-10T09:50:57.333Z,80.03
2023-01-10T09:53:25.759Z,78.94
2023-01-10T09:55:57.345Z,81.48
2023-01-10T09:58:29.564Z,80.93
2023-01-10T10:00:59.353Z,80.42
2023-01-10T10:03:26.159Z,81.75
2023-01-10T10:06:00.848Z,82.01
2023-01-10T10:08:33.681Z,81.44
2023-01-10T10:11:28.356Z,82.56
2023-01-10T10:14:21.222Z,81.44
2023-01-10T10:17:23.711Z,82.04
2023-01-10T10:20:05.522Z,81.72
2023-01-10T10:22:57.253Z,82.91
2023-01-10T10:26:02.572Z,82.90
2023-01-10T10:28:59.016Z,82.30
2023-01-10T10:31:25.644Z,81.76
2023-01-10T10:34:12.913Z,81.06
2023-01-10T10:36:59.398Z,82.14
2023-01-10T10:39:36.320Z,81.26
2023-01-10T10:42:05.754Z,81.70
2023-01-10T10:44:41.920Z,81.06
2023-01-10T10:47:20.625Z,79.62
2023-01-10T10:50:00.856Z,79.49
2023-01-10T10:52:34.491Z,79.45
2023-01-10T10:55:01.875Z,77.67
2023-01-10T10:57:30.258Z,77.74
2023-01-10T10:59:58.218Z,78.11
2023-01-10T11:02:29.996Z,78.65
2023-01-10T11:04:59.856Z,75.55
2023-01-10T11:07:30.031Z,76.40
2023-01-10T11:10:07.298Z,77.36
2023-01-10T11:12:36.245Z,74.68
2023-01-10T11:15:03.353Z,75.71
2023-01-10T11:17:31.828Z,74.17
2023-01-10T11:20:06.585Z,74.82
2023-01-10T11:22:50.945Z,74.81
2023-01-10T11:25:19.013Z,74.49
2023-01-10T11:27:51.841Z,74.39
2023-01-10T11:30:21.823Z,73.61
2023-01-10T11:32:52.792Z,74.23
2023-01-10T11:35:27.032Z,72.86
2023-01-10T11:38:09.751Z,72.63
2023-01-10T11:40:38.972Z,73.32
2023-01-10T11:43:26.716Z,72.49
2023-01-10T11:45:59.265Z,71.88
2023-01-10T11:48:50.342Z,70.40
2023-01-10T11:51:59.635Z,71.01
2023-01-10T11:54:28.053Z,67.92
2023-01-10T11:57:07.602Z,67.63
2023-01-10T11:59:34.278Z,66.69
2023-01-10T12:02:28.002Z,67.91
2023-01-10T12:04:55.778Z,66.82
2023-01-10T12:07:22.867Z,66.68
2023-01-10T12:09:56.682Z,64.93
2023-01-10T12:12:31.271Z,66.76
2023-01-10T12:14:59.133Z,65.30
2023-01-10T12:17:29.349Z,65.17
2023-01-10T12:20:00.495Z,65.21
2023-01-10T12:22:41.414Z,63.90
2023-01-10T12:25:20.738Z,64.43
2023-01-10T12:27:50.325Z,63.90
2023-01-10T12:30:31.399Z,63.82
2023-01-10T12:33:02.118Z,63.38
2023-01-10T12:35:38.788Z,62.79
2023-01-10T12:38:51.131Z,61.88
2023-01-10T12:42:08.609Z,63.32
2023-01-10T12:44:44.098Z,63.19
2023-01-10T12:47:31.149Z,65.15
2023-01-10T12:50:03.398Z,63.91
2023-01-10T12:52:42.721Z,64.17
2023-01-10T12:55:14.622Z,64.09
2023-01-10T12:57:43.068Z,64.92
2023-01-10T13:00:37.587Z,64.58
2023-01-10T13:03:16.901Z,65.34
2023-01-10T13:05:43.940Z,64.72
2023-01-10T13:08:13.511Z,64.91
2023-01-10T13:10:43.627Z,64.98
2023-01-10T13:13:36.454Z,64.82
2023-01-10T13:16:24.932Z,64.41
2023-01-10T13:19:09.825Z,63.65
2023-01-10T13:21:38.246Z,65.00
2023-01-10T13:24:07.119Z,63.58
2023-01-10T13:26:53.011Z,62.16
2023-01-10T13:29:39.430Z,62.10
2023-01-10T13:32:27.757Z,63.03
2023-01-10T13:34:55.405Z,63.72
2023-01-10T13:37:23.343Z,61.72
2023-01-10T13:39:55.711Z,62.14
2023-01-10T13:42:51.083Z,63.35
2023-01-10T13:45:31.319Z,62.67
2023-01-10T13:47:59.710Z,63.32
2023-01-10T13:50:33.491Z,63.88
2023-01-10T13:53:03.982Z,62.58
2023-01-10T13:55:42.752Z,64.33
2023-01-10T13:58:09.877Z,62.83
2023-01-10T14:00:55.418Z,62.98
2023-01-10T14:03:40.823Z,63.57
2023-01-10T14:06:28.803Z,63.63
2023-01-10T14:09:05.110Z,62.80
2023-01-10T14:11:43.937Z,61.34
2023-01-10T14:14:32.416Z,60.91
2023-01-10T14:17:18.697Z,60.47
2023-01-10T14:19:47.702Z,62.73
2023-01-10T14:22:31.037Z,62.80
2023-01-10T14:24:59.789Z,62.40
2023-01-10T14:27:32.231Z,62.51
2023-01-10T14:29:59.633Z,63.48
2023-01-10T14:32:32.529Z,62.60
2023-01-10T14:35:01.697Z,63.03
2023-01-10T14:37:32.196Z,63.56
2023-01-10T14:39:59.333Z,63.28
2023-01-10T14:42:26.215Z,63.41
2023-01-10T14:45:20.705Z,63.91
2023-01-10T14:47:48.840Z,63.67
2023-01-10T14:50:31.186Z,63.31
2023-01-10T14:53:00.587Z,63.30
2023-01-10T14:55:28.048Z,63.51
2023-01-10T14:57:59.088Z,63.93
2023-01-10T15:00:36.433Z,64.60
2023-01-10T15:03:04.217Z,63.77
2023-01-10T15:05:33.171Z,64.72
2023-01-10T15:08:28.504Z,64.37
2023-01-10T15:10:58.026Z,63.63
2023-01-10T15:13:28.804Z,65.23
2023-01-10T15:15:56.060Z,64.79
2023-01-10T15:18:36.277Z,65.67
2023-01-10T15:21:03.412Z,64.59
2023-01-10T15:23:38.388Z,65.30
2023-01-10T15:26:10.497Z,64.85
2023-01-10T15:28:37.469Z,66.12
2023-01-10T15:31:05.754Z,65.05
2023-01-10T15:33:33.154Z,65.59
2023-01-10T15:36:08.339Z,64.80
2023-01-10T15:38:38.301Z,65.63
2023-01-10T15:41:06.605Z,65.34
2023-01-10T15:43:35.326Z,66.00
2023-01-10T15:46:04.271Z,65.52
2023-01-10T15:48:35.394Z,64.87
2023-01-10T15:51:14.459Z,65.69
2023-01-10T15:54:03.723Z,65.47
2023-01-10T15:56:34.855Z,65.45
2023-01-10T15:59:03.025Z,65.67
2023-01-10T16:01:31.437Z,64.40
2023-01-10T16:04:04.484Z,65.71
2023-01-10T16:06:32.550Z,66.35
2023-01-10T16:09:02.049Z,66.16
2023-01-10T16:11:55.374Z,65.44
2023-01-10T16:14:22.195Z,65.13
2023-01-10T16:16:48.965Z,65.37
2023-01-10T16:19:15.454Z,64.42
2023-01-10T16:21:47.253Z,64.98
2023-01-10T16:24:17.819Z,65.07
2023-01-10T16:26:44.656Z,64.71
2023-01-10T16:29:11.791Z,64.22
2023-01-10T16:31:38.210Z,65.39
2023-01-10T16:34:04.781Z,64.56
2023-01-10T16:36:31.179Z,64.56
2023-01-10T16:38:57.629Z,64.90
2023-01-10T16:41:42.667Z,66.50
2023-01-10T16:44:09.133Z,66.46
2023-01-10T16:46:35.557Z,66.45
2023-01-10T16:49:02.092Z,66.08
2023-01-10T16:51:32.248Z,66.14
2023-01-10T16:53:58.663Z,67.49
2023-01-10T16:56:27.349Z,66.03
2023-01-10T16:58:54.757Z,65.75
2023-01-10T17:01:24.278Z,65.61
2023-01-10T17:03:51.904Z,64.88
2023-01-10T17:06:18.703Z,65.01
2023-01-10T17:08:45.391Z,64.68
2023-01-10T17:11:16.452Z,64.11
2023-01-10T17:13:44.378Z,66.30
2023-01-10T17:16:11.379Z,66.84
2023-01-10T17:18:39.513Z,65.59
2023-01-10T17:21:06.207Z,66.10
2023-01-10T17:23:32.627Z,66.64
2023-01-10T17:26:01.810Z,66.91
2023-01-10T17:28:29.225Z,67.06
2023-01-10T17:30:56.340Z,67.15
2023-01-10T17:33:23.044Z,67.33
2023-01-10T17:35:53.696Z,67.81
2023-01-10T17:38:21.586Z,69.48
2023-01-10T17:40:48.704Z,69.16
2023-01-10T17:43:16.160Z,69.77
2023-01-10T17:45:43.933Z,66.53
2023-01-10T17:48:13.051Z,65.97
2023-01-10T17:50:39.448Z,66.31
2023-01-10T17:53:06.550Z,66.29
2023-01-10T17:55:33.002Z,66.91
2023-01-10T17:57:59.379Z,66.95
2023-01-10T18:00:26.972Z,66.67
2023-01-10T18:02:53.395Z,65.72
2023-01-10T18:05:19.841Z,68.17
2023-01-10T18:07:46.345Z,67.65
2023-01-10T18:10:12.917Z,69.50
2023-01-10T18:12:39.401Z,69.49
2023-01-10T18:15:06.379Z,69.87
2023-01-10T18:17:33.476Z,67.25
2023-01-10T18:19:59.964Z,67.81
2023-01-10T18:22:45.037Z,67.45
2023-01-10T18:25:11.556Z,67.67
2023-01-10T18:27:37.985Z,66.78
2023-01-10T18:30:05.366Z,68.04
2023-01-10T18:32:32.454Z,67.04
2023-01-10T18:34:59.981Z,67.82
2023-01-10T18:37:26.536Z,66.70
2023-01-10T18:39:53.077Z,66.62
2023-01-10T18:42:19.747Z,67.50
2023-01-10T18:44:46.219Z,68.11
2023-01-10T18:47:12.780Z,67.67
2023-01-10T18:49:39.234Z,66.98
2023-01-10T18:52:06.521Z,67.25
2023-01-10T18:54:33.608Z,67.30
2023-01-10T18:57:00.054Z,66.93
2023-01-10T18:59:26.658Z,67.17
2023-01-10T19:01:53.111Z,68.32
2023-01-10T19:04:19.649Z,68.18
2023-01-10T19:06:46.293Z,67.72
2023-01-10T19:09:12.859Z,68.84
2023-01-10T19:11:39.344Z,67.84
2023-01-10T19:14:05.769Z,68.48
2023-01-10T19:16:32.578Z,68.27
2023-01-10T19:19:05.161Z,67.98
2023-01-10T19:21:33.203Z,67.87
2023-01-10T19:24:01.799Z,67.22
2023-01-10T19:26:28.371Z,68.42
2023-01-10T19:28:54.791Z,68.47
2023-01-10T19:31:26.653Z,68.40
2023-01-10T19:33:53.719Z,67.60
2023-01-10T19:36:22.333Z,68.41
2023-01-10T19:38:48.947Z,68.27
2023-01-10T19:41:15.944Z,68.50
2023-01-10T19:43:42.368Z,68.84
2023-01-10T19:46:11.240Z,68.39
2023-01-10T19:48:38.354Z,68.52
2023-01-10T19:51:09.336Z,69.54
2023-01-10T19:53:37.125Z,69.04
2023-01-10T19:56:05.478Z,69.32
2023-01-10T19:58:32.935Z,69.21
2023-01-10T20:01:11.294Z,68.69
2023-01-10T20:03:38.998Z,69.50
2023-01-10T20:06:06.405Z,68.92
2023-01-10T20:08:32.807Z,69.33
2023-01-10T20:11:06.332Z,69.20
2023-01-10T20:13:34.447Z,69.53
2023-01-10T20:16:01.639Z,69.44
2023-01-10T20:18:29.119Z,69.49
2023-01-10T20:20:56.083Z,68.72
2023-01-10T20:23:23.517Z,69.26
2023-01-10T20:26:06.116Z,68.96
2023-01-10T20:28:33.659Z,69.31
2023-01-10T20:31:00.676Z,68.47
2023-01-10T20:33:27.563Z,69.02
2023-01-10T20:35:58.965Z,68.47
2023-01-10T20:38:27.021Z,68.48
2023-01-10T20:41:23.971Z,68.93
2023-01-10T20:43:51.158Z,68.85
2023-01-10T20:46:30.681Z,68.13
2023-01-10T20:48:57.882Z,67.57
2023-01-10T20:51:27.280Z,68.24
2023-01-10T20:53:53.880Z,68.13
2023-01-10T20:56:22.564Z,67.56
2023-01-10T20:58:50.622Z,67.41
2023-01-10T21:01:28.660Z,67.13
2023-01-10T21:03:59.670Z,67.09
2023-01-10T21:06:26.729Z,66.49
2023-01-10T21:08:53.365Z,66.86
2023-01-10T21:11:20.892Z,67.14
2023-01-10T21:13:47.323Z,66.74
2023-01-10T21:16:17.066Z,66.73
2023-01-10T21:18:46.538Z,66.29
2023-01-10T21:21:15.404Z,66.38
2023-01-10T21:23:42.357Z,68.28
2023-01-10T21:26:14.138Z,68.42
2023-01-10T21:28:42.455Z,70.77
2023-01-10T21:31:10.142Z,71.34
2023-01-10T21:33:37.194Z,71.25
2023-01-10T21:36:04.378Z,71.66
2023-01-10T21:38:30.842Z,73.13
2023-01-10T21:41:05.348Z,72.62
2023-01-10T21:43:32.266Z,72.12
2023-01-10T21:45:59.725Z,71.71
2023-01-10T21:48:26.175Z,72.50
2023-01-10T21:50:53.449Z,72.42
2023-01-10T21:53:20.480Z,72.09
2023-01-10T21:55:46.922Z,72.37
2023-01-10T21:58:13.386Z,71.85
2023-01-10T22:00:39.836Z,72.36
2023-01-10T22:03:06.317Z,72.44
2023-01-10T22:05:32.765Z,73.20
2023-01-10T22:07:59.181Z,72.91
2023-01-10T22:10:25.541Z,73.46
2023-01-10T22:12:51.994Z,73.58
2023-01-10T22:15:18.456Z,73.81
2023-01-10T22:17:44.909Z,72.77
2023-01-10T22:20:11.716Z,71.99
2023-01-10T22:22:38.313Z,72.54
2023-01-10T22:25:05.444Z,72.17
2023-01-10T22:27:31.850Z,72.58
2023-01-10T22:29:58.283Z,72.27
2023-01-10T22:32:24.723Z,71.79
2023-01-10T22:34:51.160Z,71.69
2023-01-10T22:37:17.659Z,72.36
2023-01-10T22:39:44.138Z,72.17
2023-01-10T22:42:10.506Z,72.17
2023-01-10T22:44:36.914Z,72.11
2023-01-10T22:47:03.460Z,72.01
2023-01-10T22:49:29.902Z,71.63
2023-01-10T22:51:56.314Z,72.43
2023-01-10T22:54:22.832Z,72.93
2023-01-10T22:56:49.312Z,72.15
2023-01-10T22:59:16.298Z,72.57
2023-01-10T23:01:42.823Z,73.33
2023-01-10T23:04:10.362Z,72.36
2023-01-10T23:06:36.801Z,73.32
2023-01-10T23:09:03.652Z,73.61
2023-01-10T23:11:30.066Z,73.85
2023-01-10T23:13:56.506Z,74.28
2023-01-10T23:16:28.663Z,74.59
2023-01-10T23:18:57.079Z,74.65
2023-01-10T23:21:24.352Z,75.22
2023-01-10T23:23:51.191Z,74.70
2023-01-10T23:26:18.424Z,74.20
2023-01-10T23:28:47.448Z,74.60
2023-01-10T23:31:15.631Z,75.21
2023-01-10T23:33:42.472Z,75.15
2023-01-10T23:36:09.571Z,75.05
2023-01-10T23:38:36.295Z,74.30
2023-01-10T23:41:03.281Z,74.10
2023-01-10T23:43:30.717Z,74.15
2023-01-10T23:45:57.460Z,74.25
2023-01-10T23:48:23.975Z,74.78
2023-01-10T23:50:50.994Z,74.35
2023-01-10T23:53:18.548Z,74.19
2023-01-10T23:55:44.956Z,74.47
2023-01-10T23:58:11.507Z,74.66
